createdAt,value
2023-07-26T00:00:46.436Z,15.80
2023-07-26T00:01:48.581Z,18.10
2023-07-26T00:02:50.809Z,17.10
2023-07-26T00:03:53.141Z,16.20
2023-07-26T00:04:55.367Z,16.20
2023-07-26T00:05:57.509Z,16.20
2023-07-26T00:06:59.738Z,16.50
2023-07-26T00:08:01.872Z,15.50
2023-07-26T00:09:05.441Z,16.10
2023-07-26T00:10:08.420Z,16.30
2023-07-26T00:11:10.529Z,15.50
2023-07-26T00:12:12.498Z,13.30
2023-07-26T00:13:17.964Z,15.80
2023-07-26T00:14:20.147Z,14.10
2023-07-26T00:15:22.252Z,14.20
2023-07-26T00:16:24.419Z,14.70
2023-07-26T00:17:26.604Z,16.00
2023-07-26T00:18:28.693Z,16.60
2023-07-26T00:19:31.010Z,15.40
2023-07-26T00:20:33.325Z,16.90
2023-07-26T00:21:35.440Z,17.30
2023-07-26T00:22:37.516Z,16.70
2023-07-26T00:23:39.666Z,16.90
2023-07-26T00:24:41.701Z,15.70
2023-07-26T00:25:43.763Z,15.90
2023-07-26T00:26:46.187Z,17.90
2023-07-26T00:27:48.403Z,12.60
2023-07-26T00:28:50.575Z,9.60
2023-07-26T00:29:52.698Z,13.70
2023-07-26T00:30:54.933Z,13.20
2023-07-26T00:31:57.125Z,13.90
2023-07-26T00:32:59.300Z,15.90
2023-07-26T00:34:01.261Z,15.50
2023-07-26T00:35:06.424Z,15.90
2023-07-26T00:36:09.071Z,14.10
2023-07-26T00:37:11.136Z,13.70
2023-07-26T00:38:13.211Z,11.00
2023-07-26T00:39:15.872Z,15.20
2023-07-26T00:40:18.407Z,11.80
2023-07-26T00:41:21.376Z,13.70
2023-07-26T00:42:23.463Z,13.70
2023-07-26T00:43:25.355Z,14.00
2023-07-26T00:44:27.356Z,15.00
2023-07-26T00:45:31.124Z,15.30
2023-07-26T00:46:33.752Z,13.00
2023-07-26T00:47:37.139Z,12.90
2023-07-26T00:48:39.816Z,13.73
2023-07-26T00:49:42.092Z,13.60
2023-07-26T00:50:45.731Z,14.20
2023-07-26T00:51:47.989Z,12.50
2023-07-26T00:52:50.195Z,13.50
2023-07-26T00:53:52.737Z,13.00
2023-07-26T00:54:55.078Z,12.00
2023-07-26T00:55:57.288Z,11.20
2023-07-26T00:56:59.702Z,13.40
2023-07-26T00:58:02.746Z,12.10
2023-07-26T00:59:07.249Z,13.09
2023-07-26T01:00:10.191Z,12.50
2023-07-26T01:01:13.291Z,11.90
2023-07-26T01:02:15.421Z,11.30
2023-07-26T01:03:18.023Z,12.20
2023-07-26T01:04:20.072Z,11.70
2023-07-26T01:05:22.810Z,11.50
2023-07-26T01:09:03.610Z,11.70
2023-07-26T01:10:12.845Z,9.70
2023-07-26T01:11:34.046Z,10.60
2023-07-26T01:12:43.027Z,9.80
2023-07-26T01:15:31.217Z,10.90
2023-07-26T01:16:33.769Z,10.50
2023-07-26T01:17:36.949Z,9.20
2023-07-26T01:18:39.041Z,10.80
2023-07-26T01:19:41.267Z,10.80
2023-07-26T01:20:44.485Z,10.40
2023-07-26T01:21:46.797Z,9.60
2023-07-26T01:22:48.898Z,12.10
2023-07-26T01:23:52.180Z,11.00
2023-07-26T01:24:54.188Z,9.40
2023-07-26T01:25:56.465Z,10.60
2023-07-26T01:26:58.717Z,9.40
2023-07-26T01:28:01.051Z,8.40
2023-07-26T01:29:03.992Z,9.60
2023-07-26T01:30:06.956Z,8.80
2023-07-26T01:31:09.662Z,10.00
2023-07-26T01:32:12.867Z,9.00
2023-07-26T01:33:16.371Z,9.40
2023-07-26T01:34:19.184Z,8.50
2023-07-26T01:35:21.755Z,9.00
2023-07-26T01:36:24.371Z,9.50
2023-07-26T01:37:27.418Z,10.50
2023-07-26T01:38:30.410Z,11.09
2023-07-26T01:39:32.667Z,9.90
2023-07-26T01:40:36.047Z,3.80
2023-07-26T01:41:39.156Z,6.80
2023-07-26T01:42:41.850Z,9.10
2023-07-26T01:43:44.459Z,9.70
2023-07-26T01:44:46.556Z,7.90
2023-07-26T01:45:50.588Z,8.60
2023-07-26T01:46:52.720Z,10.20
2023-07-26T01:47:54.901Z,9.90
2023-07-26T01:48:57.026Z,10.00
2023-07-26T01:49:59.351Z,8.50
2023-07-26T01:51:01.650Z,9.10
2023-07-26T01:52:04.321Z,9.80
2023-07-26T01:53:06.678Z,9.18
2023-07-26T01:54:08.688Z,9.10
2023-07-26T01:55:10.823Z,7.80
2023-07-26T01:56:13.237Z,8.60
2023-07-26T01:57:15.454Z,8.60
2023-07-26T01:58:17.610Z,9.40
2023-07-26T01:59:19.875Z,8.00
2023-07-26T02:00:22.154Z,7.50
2023-07-26T02:01:26.195Z,9.40
2023-07-26T02:02:28.322Z,8.00
2023-07-26T02:03:30.861Z,7.70
2023-07-26T02:04:33.084Z,8.60
2023-07-26T02:05:35.491Z,7.90
2023-07-26T02:06:37.981Z,7.80
2023-07-26T02:07:40.098Z,9.10
2023-07-26T02:08:42.599Z,8.10
2023-07-26T02:09:44.717Z,7.80
2023-07-26T02:10:46.868Z,8.50
2023-07-26T02:11:49.048Z,8.60
2023-07-26T02:12:51.149Z,6.80
2023-07-26T02:13:53.393Z,10.20
2023-07-26T02:14:55.599Z,7.20
2023-07-26T02:15:57.809Z,9.30
2023-07-26T02:17:00.232Z,7.80
2023-07-26T02:18:02.755Z,8.00
2023-07-26T02:19:05.968Z,7.90
2023-07-26T02:20:09.769Z,0.80
2023-07-26T02:21:12.045Z,8.10
2023-07-26T02:22:14.242Z,7.40
2023-07-26T02:23:16.302Z,8.30
2023-07-26T02:24:18.618Z,7.90
2023-07-26T02:25:20.732Z,9.20
2023-07-26T02:26:23.045Z,8.60
2023-07-26T02:27:26.212Z,8.80
2023-07-26T02:28:28.417Z,7.50
2023-07-26T02:29:30.652Z,7.10
2023-07-26T02:30:32.951Z,7.80
2023-07-26T02:31:35.287Z,6.70
2023-07-26T02:32:37.956Z,7.73
2023-07-26T02:33:40.029Z,7.70
2023-07-26T02:34:42.763Z,7.70
2023-07-26T02:35:44.898Z,8.10
2023-07-26T02:36:47.417Z,8.40
2023-07-26T02:37:49.499Z,7.30
2023-07-26T02:38:51.592Z,7.90
2023-07-26T02:39:53.822Z,7.00
2023-07-26T02:40:55.993Z,7.60
2023-07-26T02:41:58.052Z,7.20
2023-07-26T02:43:00.172Z,8.40
2023-07-26T02:44:02.315Z,5.00
2023-07-26T02:45:05.368Z,8.10
2023-07-26T02:46:08.790Z,7.30
2023-07-26T02:47:10.945Z,9.20
2023-07-26T02:48:13.329Z,8.40
2023-07-26T02:49:15.370Z,7.00
2023-07-26T02:50:17.714Z,6.70
2023-07-26T02:51:19.828Z,7.60
2023-07-26T02:52:21.952Z,8.60
2023-07-26T02:53:24.087Z,9.10
2023-07-26T02:54:26.214Z,8.10
2023-07-26T02:55:28.675Z,7.70
2023-07-26T02:56:31.065Z,6.80
2023-07-26T02:57:33.126Z,7.40
2023-07-26T02:58:35.329Z,7.30
2023-07-26T02:59:37.620Z,7.90
2023-07-26T03:00:39.909Z,8.30
2023-07-26T03:01:42.072Z,7.50
2023-07-26T03:02:44.234Z,7.50
2023-07-26T03:03:46.390Z,7.40
2023-07-26T03:04:48.535Z,6.90
2023-07-26T03:05:50.683Z,7.70
2023-07-26T03:06:52.901Z,7.70
2023-07-26T03:07:55.053Z,8.70
2023-07-26T03:08:58.608Z,8.00
2023-07-26T03:10:01.017Z,8.40
2023-07-26T03:11:03.401Z,8.80
2023-07-26T03:12:05.895Z,8.80
2023-07-26T03:13:08.054Z,9.70
2023-07-26T03:14:10.269Z,8.60
2023-07-26T03:15:12.454Z,6.30
2023-07-26T03:16:16.680Z,6.64
2023-07-26T03:17:22.859Z,6.10
2023-07-26T03:18:23.012Z,6.70
2023-07-26T03:19:25.070Z,8.11
2023-07-26T03:20:27.549Z,7.70
2023-07-26T03:21:29.613Z,8.10
2023-07-26T03:22:31.826Z,7.50
2023-07-26T03:23:33.896Z,8.20
2023-07-26T03:24:35.993Z,7.60
2023-07-26T03:25:38.083Z,8.20
2023-07-26T03:26:40.782Z,7.30
2023-07-26T03:27:42.893Z,5.40
2023-07-26T03:28:44.989Z,7.80
2023-07-26T03:29:47.244Z,8.40
2023-07-26T03:30:49.572Z,7.40
2023-07-26T03:31:52.309Z,9.00
2023-07-26T03:32:56.411Z,8.60
2023-07-26T03:34:00.530Z,8.30
2023-07-26T03:35:02.635Z,8.30
2023-07-26T03:36:05.223Z,7.10
2023-07-26T03:37:08.278Z,8.40
2023-07-26T03:38:10.521Z,6.30
2023-07-26T03:39:12.600Z,7.20
2023-07-26T03:40:15.139Z,7.80
2023-07-26T03:41:18.402Z,7.10
2023-07-26T03:42:20.681Z,7.70
2023-07-26T03:43:22.743Z,8.00
2023-07-26T03:44:24.837Z,8.90
2023-07-26T03:45:26.832Z,9.78
2023-07-26T03:46:29.064Z,8.90
2023-07-26T03:47:31.135Z,10.10
2023-07-26T03:48:33.158Z,7.80
2023-07-26T03:49:35.333Z,9.70
2023-07-26T03:50:37.792Z,7.20
2023-07-26T03:51:41.886Z,7.20
2023-07-26T03:52:47.113Z,9.80
2023-07-26T03:53:49.206Z,9.30
2023-07-26T03:54:51.333Z,8.70
2023-07-26T03:55:53.430Z,8.10
2023-07-26T03:56:55.746Z,7.70
2023-07-26T03:57:58.169Z,6.90
2023-07-26T03:59:00.315Z,6.90
2023-07-26T04:00:02.908Z,9.00
2023-07-26T04:01:07.029Z,8.90
2023-07-26T04:02:09.336Z,7.20
2023-07-26T04:03:11.864Z,7.70
2023-07-26T04:04:15.126Z,8.80
2023-07-26T04:05:17.645Z,8.50
2023-07-26T04:06:20.206Z,7.80
2023-07-26T04:07:22.300Z,7.80
2023-07-26T04:08:24.471Z,6.60
2023-07-26T04:09:26.594Z,8.30
2023-07-26T04:10:28.795Z,7.60
2023-07-26T04:11:31.023Z,8.00
2023-07-26T04:12:33.128Z,4.50
2023-07-26T04:13:35.493Z,7.00
2023-07-26T04:14:37.494Z,9.00
2023-07-26T04:15:40.447Z,9.50
2023-07-26T04:16:42.981Z,8.10
2023-07-26T04:17:45.022Z,9.00
2023-07-26T04:18:48.074Z,7.90
2023-07-26T04:19:51.565Z,7.90
2023-07-26T04:20:54.724Z,6.90
2023-07-26T04:21:56.806Z,7.91
2023-07-26T04:22:58.818Z,7.20
2023-07-26T04:24:00.870Z,7.50
2023-07-26T04:25:03.248Z,9.00
2023-07-26T04:26:05.675Z,8.10
2023-07-26T04:27:07.866Z,8.20
2023-07-26T04:28:09.991Z,8.60
2023-07-26T04:29:12.360Z,9.60
2023-07-26T04:30:14.872Z,7.70
2023-07-26T04:31:16.997Z,8.50
2023-07-26T04:32:19.113Z,12.40
2023-07-26T04:33:21.304Z,10.10
2023-07-26T04:34:23.368Z,10.80
2023-07-26T04:35:25.368Z,7.90
2023-07-26T04:36:27.614Z,9.40
2023-07-26T04:37:29.705Z,8.10
2023-07-26T04:38:31.875Z,9.10
2023-07-26T04:39:34.060Z,10.20
2023-07-26T04:40:37.281Z,10.30
2023-07-26T04:41:39.456Z,7.80
2023-07-26T04:42:41.705Z,9.60
2023-07-26T04:43:43.810Z,9.40
2023-07-26T04:44:46.264Z,7.40
2023-07-26T04:45:49.697Z,8.60
2023-07-26T04:46:52.201Z,10.30
2023-07-26T04:47:54.306Z,9.40
2023-07-26T04:48:56.366Z,10.20
2023-07-26T04:49:58.530Z,9.00
2023-07-26T04:51:04.467Z,11.00
2023-07-26T04:52:07.221Z,8.90
2023-07-26T04:53:09.599Z,8.70
2023-07-26T04:54:11.662Z,9.00
2023-07-26T04:55:13.973Z,11.90
2023-07-26T04:56:16.375Z,13.50
2023-07-26T04:57:18.507Z,10.30
2023-07-26T04:58:20.685Z,9.80
2023-07-26T04:59:23.036Z,8.50
2023-07-26T05:00:25.514Z,10.50
2023-07-26T05:01:27.680Z,9.30
2023-07-26T05:02:30.129Z,12.60
2023-07-26T05:03:32.896Z,13.40
2023-07-26T05:04:35.748Z,11.00
2023-07-26T05:05:38.619Z,9.55
2023-07-26T05:06:40.934Z,10.18
2023-07-26T05:07:43.302Z,10.90
2023-07-26T05:08:45.891Z,9.60
2023-07-26T05:09:48.340Z,12.00
2023-07-26T05:10:51.254Z,14.60
2023-07-26T05:11:54.117Z,12.50
2023-07-26T05:12:57.494Z,11.60
2023-07-26T05:13:59.820Z,9.00
2023-07-26T05:15:02.025Z,12.30
2023-07-26T05:16:04.972Z,12.30
2023-07-26T05:17:07.400Z,11.40
2023-07-26T05:18:09.587Z,14.40
2023-07-26T05:19:11.878Z,12.80
2023-07-26T05:20:14.187Z,13.20
2023-07-26T05:21:16.458Z,13.30
2023-07-26T05:22:18.640Z,11.50
2023-07-26T05:23:20.838Z,14.50
2023-07-26T05:24:23.193Z,13.70
2023-07-26T05:25:27.854Z,12.30
2023-07-26T05:26:30.124Z,8.20
2023-07-26T05:27:32.383Z,11.20
2023-07-26T05:28:34.520Z,13.40
2023-07-26T05:29:36.872Z,8.90
2023-07-26T05:30:40.457Z,9.70
2023-07-26T05:31:42.753Z,7.70
2023-07-26T05:32:45.481Z,8.90
2023-07-26T05:33:47.915Z,7.64
2023-07-26T05:34:55.472Z,7.60
2023-07-26T05:35:59.660Z,9.30
2023-07-26T05:37:02.417Z,10.90
2023-07-26T05:39:34.262Z,14.40
2023-07-26T05:40:36.752Z,12.10
2023-07-26T05:41:38.939Z,13.30
2023-07-26T05:42:41.097Z,11.40
2023-07-26T05:43:43.234Z,10.00
2023-07-26T05:44:45.798Z,11.30
2023-07-26T05:45:47.940Z,7.80
2023-07-26T05:46:50.793Z,8.27
2023-07-26T05:47:52.934Z,7.60
2023-07-26T05:48:55.110Z,8.50
2023-07-26T05:49:57.538Z,9.90
2023-07-26T05:51:00.021Z,8.50
2023-07-26T05:52:02.205Z,8.30
2023-07-26T05:53:04.355Z,8.00
2023-07-26T05:54:06.459Z,8.60
2023-07-26T05:55:09.501Z,10.80
2023-07-26T05:56:12.564Z,10.20
2023-07-26T05:57:14.853Z,11.10
2023-07-26T05:58:17.100Z,7.90
2023-07-26T05:59:19.230Z,7.50
2023-07-26T06:00:21.622Z,6.50
2023-07-26T06:01:24.023Z,8.40
2023-07-26T06:02:26.439Z,7.00
2023-07-26T06:03:28.671Z,9.60
2023-07-26T06:04:30.721Z,6.40
2023-07-26T06:05:33.092Z,8.20
2023-07-26T06:06:35.579Z,8.10
2023-07-26T06:07:37.605Z,8.30
2023-07-26T06:08:39.793Z,7.60
2023-07-26T06:09:41.935Z,8.50
2023-07-26T06:10:44.599Z,5.00
2023-07-26T06:11:55.578Z,7.70
2023-07-26T06:12:50.840Z,7.00
2023-07-26T06:13:54.424Z,7.40
2023-07-26T06:14:56.564Z,6.10
2023-07-26T06:15:58.737Z,7.10
2023-07-26T06:17:01.680Z,8.73
2023-07-26T06:18:04.117Z,8.50
2023-07-26T06:19:06.644Z,6.90
2023-07-26T06:20:09.890Z,8.27
2023-07-26T06:21:12.079Z,8.36
2023-07-26T06:22:14.167Z,7.80
2023-07-26T06:23:16.263Z,8.60
2023-07-26T06:24:18.406Z,7.40
2023-07-26T06:25:20.564Z,9.20
2023-07-26T06:26:22.942Z,8.70
2023-07-26T06:27:30.041Z,9.60
2023-07-26T06:28:32.292Z,9.90
2023-07-26T06:29:35.344Z,9.10
2023-07-26T06:30:38.384Z,8.91
2023-07-26T06:31:40.639Z,11.10
2023-07-26T06:32:43.009Z,10.00
2023-07-26T06:33:45.304Z,10.40
2023-07-26T06:34:47.400Z,8.70
2023-07-26T06:35:49.373Z,7.80
2023-07-26T06:36:51.593Z,8.90
2023-07-26T06:37:53.657Z,9.20
2023-07-26T06:38:55.710Z,9.20
2023-07-26T06:39:57.780Z,8.30
2023-07-26T06:41:00.005Z,8.60
2023-07-26T06:42:02.193Z,9.50
2023-07-26T06:43:04.414Z,10.70
2023-07-26T06:44:06.499Z,9.00
2023-07-26T06:45:09.284Z,10.60
2023-07-26T06:46:12.443Z,8.80
2023-07-26T06:47:14.571Z,10.50
2023-07-26T06:48:17.345Z,8.90
2023-07-26T06:49:19.802Z,9.60
2023-07-26T06:50:22.310Z,9.80
2023-07-26T06:51:24.629Z,8.50
2023-07-26T06:52:29.194Z,6.40
2023-07-26T06:53:31.936Z,8.00
2023-07-26T06:54:34.036Z,8.70
2023-07-26T06:55:37.330Z,8.20
2023-07-26T06:56:39.637Z,9.40
2023-07-26T06:57:41.660Z,9.30
2023-07-26T06:58:43.676Z,7.90
2023-07-26T06:59:45.802Z,9.10
2023-07-26T07:00:48.109Z,9.40
2023-07-26T07:01:50.353Z,9.60
2023-07-26T07:04:15.578Z,9.40
2023-07-26T07:05:18.146Z,10.90
2023-07-26T07:06:20.656Z,9.50
2023-07-26T07:07:22.760Z,9.60
2023-07-26T07:08:24.850Z,11.80
2023-07-26T07:09:27.075Z,10.60
2023-07-26T07:10:29.387Z,10.70
2023-07-26T07:11:31.622Z,11.20
2023-07-26T07:12:33.891Z,10.40
2023-07-26T07:13:36.865Z,10.80
2023-07-26T07:14:39.029Z,13.10
2023-07-26T07:15:41.108Z,10.90
2023-07-26T07:16:43.636Z,10.40
2023-07-26T07:17:45.725Z,9.90
2023-07-26T07:18:48.909Z,12.00
2023-07-26T07:19:51.076Z,13.00
2023-07-26T07:20:57.739Z,12.90
2023-07-26T07:21:59.947Z,4.40
2023-07-26T07:23:02.026Z,11.40
2023-07-26T07:24:04.625Z,12.00
2023-07-26T07:25:07.180Z,10.90
2023-07-26T07:26:09.785Z,11.80
2023-07-26T07:27:12.067Z,9.60
2023-07-26T07:28:14.175Z,6.80
2023-07-26T07:29:16.414Z,9.20
2023-07-26T07:30:18.757Z,11.70
2023-07-26T07:31:20.819Z,11.11
2023-07-26T07:32:23.253Z,11.10
2023-07-26T07:33:25.350Z,10.80
2023-07-26T07:34:27.438Z,10.80
2023-07-26T07:35:29.415Z,10.56
2023-07-26T07:36:31.778Z,10.70
2023-07-26T07:37:33.945Z,11.90
2023-07-26T07:38:36.336Z,11.00
2023-07-26T07:39:38.400Z,13.00
2023-07-26T07:40:40.885Z,12.30
2023-07-26T07:41:43.007Z,11.20
2023-07-26T07:42:45.035Z,9.90
2023-07-26T07:43:47.092Z,10.10
2023-07-26T07:44:49.235Z,11.60
2023-07-26T07:45:51.354Z,11.00
2023-07-26T07:47:02.695Z,10.90
2023-07-26T07:47:57.627Z,11.80
2023-07-26T07:49:00.608Z,11.90
2023-07-26T07:50:03.156Z,10.70
2023-07-26T07:51:05.153Z,12.30
2023-07-26T07:52:08.053Z,7.70
2023-07-26T07:53:10.658Z,9.60
2023-07-26T07:54:12.784Z,9.60
2023-07-26T07:55:14.733Z,8.33
2023-07-26T07:56:17.466Z,20.30
2023-07-26T07:57:19.585Z,13.40
2023-07-26T07:58:21.747Z,10.70
2023-07-26T07:59:24.009Z,11.20
2023-07-26T08:00:26.302Z,9.20
2023-07-26T08:01:28.439Z,10.90
2023-07-26T08:02:30.667Z,14.80
2023-07-26T08:03:32.822Z,18.40
2023-07-26T08:04:37.409Z,11.70
2023-07-26T08:05:40.677Z,10.30
2023-07-26T08:06:42.885Z,10.50
2023-07-26T08:07:45.217Z,6.40
2023-07-26T08:08:47.379Z,11.90
2023-07-26T08:09:49.466Z,11.30
2023-07-26T08:10:52.065Z,10.60
2023-07-26T08:11:54.149Z,9.60
2023-07-26T08:12:56.252Z,11.10
2023-07-26T08:13:58.396Z,10.70
2023-07-26T08:15:00.515Z,11.70
2023-07-26T08:16:04.997Z,10.70
2023-07-26T08:17:08.700Z,10.40
2023-07-26T08:18:11.017Z,11.40
2023-07-26T08:19:13.159Z,11.40
2023-07-26T08:20:15.459Z,9.20
2023-07-26T08:21:17.573Z,9.10
2023-07-26T08:22:19.678Z,11.00
2023-07-26T08:23:24.842Z,10.70
2023-07-26T08:24:27.673Z,10.30
2023-07-26T08:25:30.487Z,11.55
2023-07-26T08:26:32.605Z,11.90
2023-07-26T08:27:34.841Z,11.70
2023-07-26T08:28:37.062Z,10.80
2023-07-26T08:29:39.210Z,10.80
2023-07-26T08:30:42.381Z,11.40
2023-07-26T08:31:44.607Z,11.90
2023-07-26T08:32:46.780Z,11.10
2023-07-26T08:33:48.857Z,11.70
2023-07-26T08:34:51.004Z,10.80
2023-07-26T08:35:53.636Z,12.00
2023-07-26T08:36:55.894Z,11.91
2023-07-26T08:37:58.096Z,10.30
2023-07-26T08:39:00.433Z,11.20
2023-07-26T08:40:03.006Z,12.00
2023-07-26T08:41:05.213Z,11.20
2023-07-26T08:42:07.949Z,10.50
2023-07-26T08:43:10.349Z,12.10
2023-07-26T08:44:13.492Z,16.40
2023-07-26T08:45:16.699Z,14.10
2023-07-26T08:46:20.995Z,12.00
2023-07-26T08:47:23.305Z,12.00
2023-07-26T08:48:25.675Z,11.90
2023-07-26T08:49:28.625Z,13.50
2023-07-26T08:50:31.368Z,19.80
2023-07-26T08:51:34.087Z,29.70
2023-07-26T08:52:37.111Z,23.09
2023-07-26T08:53:40.643Z,18.20
2023-07-26T08:54:44.087Z,22.70
2023-07-26T08:55:47.708Z,23.70
2023-07-26T08:56:50.469Z,36.50
2023-07-26T08:57:52.729Z,45.50
2023-07-26T08:58:54.812Z,24.00
2023-07-26T08:59:56.889Z,18.10
2023-07-26T09:00:59.540Z,15.30
2023-07-26T09:02:04.793Z,11.40
2023-07-26T09:03:08.079Z,13.20
2023-07-26T09:04:10.276Z,16.55
2023-07-26T09:05:12.920Z,13.80
2023-07-26T09:06:15.721Z,12.00
2023-07-26T09:07:18.651Z,11.80
2023-07-26T09:08:20.939Z,11.91
2023-07-26T09:09:23.230Z,13.70
2023-07-26T09:10:27.632Z,16.00
2023-07-26T09:11:29.944Z,14.00
2023-07-26T09:12:32.078Z,14.00
2023-07-26T09:13:34.251Z,15.10
2023-07-26T09:14:36.313Z,13.40
2023-07-26T09:15:40.813Z,13.00
2023-07-26T09:16:43.246Z,12.70
2023-07-26T09:17:46.084Z,12.10
2023-07-26T09:19:05.252Z,12.73
2023-07-26T09:20:22.321Z,12.00
2023-07-26T09:22:35.481Z,11.40
2023-07-26T09:23:52.092Z,10.40
2023-07-26T09:24:50.369Z,10.40
2023-07-26T09:25:52.632Z,7.20
2023-07-26T09:26:58.657Z,10.30
2023-07-26T09:28:01.919Z,12.40
2023-07-26T09:29:14.692Z,12.30
2023-07-26T09:30:22.104Z,11.30
2023-07-26T09:31:31.828Z,12.00
2023-07-26T09:32:34.328Z,11.40
2023-07-26T09:33:37.123Z,11.40
2023-07-26T09:34:40.084Z,10.70
2023-07-26T09:35:47.358Z,11.27
2023-07-26T09:36:51.202Z,11.90
2023-07-26T09:37:55.358Z,11.60
2023-07-26T09:38:58.086Z,12.20
2023-07-26T09:40:01.024Z,10.70
2023-07-26T09:42:21.500Z,11.40
2023-07-26T09:43:38.218Z,12.30
2023-07-26T09:44:43.384Z,12.90
2023-07-26T09:45:45.530Z,11.50
2023-07-26T09:48:20.822Z,11.10
2023-07-26T09:49:24.105Z,10.10
2023-07-26T09:51:32.678Z,10.40
2023-07-26T09:52:35.025Z,11.40
2023-07-26T09:53:37.813Z,11.00
2023-07-26T09:54:39.904Z,11.80
2023-07-26T09:55:42.370Z,15.90
2023-07-26T09:56:46.153Z,15.90
2023-07-26T09:57:49.042Z,15.00
2023-07-26T09:58:51.579Z,13.64
2023-07-26T09:59:56.243Z,12.40
2023-07-26T10:01:01.090Z,12.30
2023-07-26T10:02:06.066Z,11.90
2023-07-26T10:03:10.913Z,11.40
2023-07-26T10:04:15.612Z,11.90
2023-07-26T10:05:19.213Z,11.20
2023-07-26T10:06:23.445Z,12.80
2023-07-26T10:07:25.985Z,10.70
2023-07-26T10:08:28.161Z,10.90
2023-07-26T10:09:31.390Z,11.70
2023-07-26T10:10:33.656Z,12.50
2023-07-26T10:11:36.682Z,12.30
2023-07-26T10:12:40.246Z,11.45
2023-07-26T10:13:43.554Z,11.30
2023-07-26T10:14:47.329Z,12.30
2023-07-26T10:15:50.986Z,11.40
2023-07-26T10:16:53.516Z,11.20
2023-07-26T10:17:55.927Z,11.90
2023-07-26T10:19:01.981Z,13.73
2023-07-26T10:20:05.905Z,15.00
2023-07-26T10:21:09.505Z,11.20
2023-07-26T10:22:11.836Z,10.40
2023-07-26T10:23:14.394Z,8.70
2023-07-26T10:24:17.410Z,9.60
2023-07-26T10:25:20.085Z,10.27
2023-07-26T10:26:22.754Z,9.00
2023-07-26T10:27:25.483Z,9.50
2023-07-26T10:28:28.263Z,10.91
2023-07-26T10:29:30.566Z,10.60
2023-07-26T10:30:33.177Z,12.80
2023-07-26T10:31:35.630Z,11.20
2023-07-26T10:32:46.556Z,10.30
2023-07-26T10:33:49.007Z,10.00
2023-07-26T10:36:05.621Z,14.50
2023-07-26T10:37:18.340Z,10.70
2023-07-26T10:38:20.585Z,9.45
2023-07-26T10:39:30.032Z,8.80
2023-07-26T10:40:37.761Z,11.50
2023-07-26T10:41:49.791Z,10.10
2023-07-26T10:42:52.089Z,10.30
2023-07-26T10:44:09.101Z,9.20
2023-07-26T10:45:15.025Z,11.60
2023-07-26T10:46:18.026Z,9.20
2023-07-26T10:47:21.756Z,9.20
2023-07-26T10:48:30.627Z,9.70
2023-07-26T10:49:34.246Z,10.70
2023-07-26T10:50:36.467Z,9.90
2023-07-26T10:51:42.333Z,10.40
2023-07-26T10:52:44.545Z,10.50
2023-07-26T10:53:46.587Z,10.20
2023-07-26T10:54:50.397Z,12.40
2023-07-26T10:55:52.454Z,12.00
2023-07-26T10:57:22.537Z,9.20
2023-07-26T10:58:24.686Z,10.10
2023-07-26T10:59:27.971Z,9.50
2023-07-26T11:00:34.905Z,10.00
2023-07-26T11:01:39.497Z,9.50
2023-07-26T11:02:47.124Z,10.00
2023-07-26T11:03:49.232Z,10.60
2023-07-26T11:04:52.200Z,11.20
2023-07-26T11:05:55.674Z,12.91
2023-07-26T11:07:00.914Z,13.80
2023-07-26T11:08:06.269Z,12.50
2023-07-26T11:10:39.505Z,13.90
2023-07-26T11:11:56.568Z,12.10
2023-07-26T11:13:13.737Z,10.90
2023-07-26T11:14:17.198Z,12.70
2023-07-26T11:16:13.024Z,10.30
2023-07-26T11:16:37.588Z,6.50
2023-07-26T11:17:43.114Z,9.70
2023-07-26T11:18:45.235Z,8.90
2023-07-26T11:21:18.370Z,9.60
2023-07-26T11:22:21.032Z,11.40
2023-07-26T11:23:28.597Z,10.60
2023-07-26T11:24:31.092Z,8.80
2023-07-26T11:25:35.484Z,8.80
2023-07-26T11:26:45.949Z,7.90
2023-07-26T11:27:49.293Z,7.50
2023-07-26T11:28:51.626Z,9.20
2023-07-26T11:29:53.732Z,9.50
2023-07-26T11:30:56.644Z,9.00
2023-07-26T11:31:58.857Z,9.80
2023-07-26T11:33:01.045Z,9.60
2023-07-26T11:34:18.217Z,10.30
2023-07-26T11:35:23.260Z,11.00
2023-07-26T11:36:25.300Z,9.30
2023-07-26T11:37:27.442Z,7.00
2023-07-26T11:38:29.563Z,10.45
2023-07-26T11:39:31.657Z,9.40
2023-07-26T11:40:41.133Z,9.20
2023-07-26T11:41:44.138Z,8.00
2023-07-26T11:42:46.823Z,10.09
2023-07-26T11:43:48.966Z,9.90
2023-07-26T11:44:51.171Z,9.30
2023-07-26T11:45:53.793Z,8.90
2023-07-26T11:47:00.266Z,7.80
2023-07-26T11:48:02.745Z,7.90
2023-07-26T11:49:05.018Z,8.50
2023-07-26T11:50:07.691Z,8.70
2023-07-26T11:51:09.877Z,8.10
2023-07-26T11:52:14.640Z,7.20
2023-07-26T11:53:25.074Z,8.90
2023-07-26T11:54:21.082Z,7.80
2023-07-26T11:55:23.194Z,8.10
2023-07-26T11:56:29.138Z,7.30
2023-07-26T11:57:32.076Z,7.20
2023-07-26T11:58:34.972Z,8.55
2023-07-26T11:59:37.364Z,8.00
2023-07-26T12:00:46.018Z,9.30
2023-07-26T12:01:48.305Z,9.20
2023-07-26T12:02:50.470Z,8.70
2023-07-26T12:03:52.672Z,8.60
2023-07-26T12:05:20.428Z,8.60
2023-07-26T12:06:31.420Z,9.90
2023-07-26T12:07:35.384Z,8.50
2023-07-26T12:08:37.866Z,7.80
2023-07-26T12:09:46.470Z,8.90
2023-07-26T12:10:50.468Z,9.30
2023-07-26T12:11:53.504Z,6.70
2023-07-26T12:12:56.417Z,9.10
2023-07-26T12:13:58.739Z,8.82
2023-07-26T12:15:03.435Z,9.10
2023-07-26T12:16:06.155Z,8.60
2023-07-26T12:17:12.226Z,7.50
2023-07-26T12:18:14.575Z,10.10
2023-07-26T12:19:22.135Z,10.40
2023-07-26T12:20:34.239Z,8.70
2023-07-26T12:21:29.845Z,9.60
2023-07-26T12:22:31.946Z,8.40
2023-07-26T12:23:53.777Z,10.00
2023-07-26T12:24:57.037Z,8.40
2023-07-26T12:26:01.123Z,9.00
2023-07-26T12:27:03.689Z,8.00
2023-07-26T12:28:06.944Z,7.10
2023-07-26T12:29:09.157Z,7.60
2023-07-26T12:30:13.007Z,9.82
2023-07-26T12:31:20.195Z,9.10
2023-07-26T12:32:22.370Z,6.30
2023-07-26T12:33:25.567Z,8.40
2023-07-26T12:34:32.551Z,7.73
2023-07-26T12:35:35.417Z,7.50
2023-07-26T12:36:41.651Z,9.40
2023-07-26T12:37:43.782Z,9.90
2023-07-26T12:38:46.367Z,10.60
2023-07-26T12:39:48.481Z,8.20
2023-07-26T12:40:52.206Z,10.18
2023-07-26T12:41:54.369Z,8.50
2023-07-26T12:42:56.483Z,8.70
2023-07-26T12:43:58.728Z,7.20
2023-07-26T12:45:00.870Z,9.20
2023-07-26T12:46:03.335Z,8.40
2023-07-26T12:48:09.464Z,8.40
2023-07-26T12:49:11.961Z,9.80
2023-07-26T12:50:15.414Z,9.20
2023-07-26T12:51:17.593Z,8.90
2023-07-26T12:52:19.720Z,16.80
2023-07-26T12:53:24.266Z,14.10
2023-07-26T12:54:27.254Z,11.20
2023-07-26T12:55:29.607Z,9.00
2023-07-26T12:56:31.952Z,8.60
2023-07-26T12:57:35.008Z,6.90
2023-07-26T12:58:37.166Z,9.20
2023-07-26T12:59:40.182Z,12.80
2023-07-26T13:00:43.011Z,11.40
2023-07-26T13:01:45.248Z,9.60
2023-07-26T13:02:47.544Z,8.30
2023-07-26T13:03:49.765Z,9.70
2023-07-26T13:04:52.242Z,9.50
2023-07-26T13:05:54.347Z,8.80
2023-07-26T13:06:56.673Z,9.80
2023-07-26T13:07:59.076Z,8.10
2023-07-26T13:09:02.130Z,8.55
2023-07-26T13:10:05.230Z,9.27
2023-07-26T13:11:07.417Z,8.55
2023-07-26T13:12:09.539Z,8.50
2023-07-26T13:13:11.674Z,8.70
2023-07-26T13:14:14.019Z,10.00
2023-07-26T13:15:17.174Z,10.30
2023-07-26T13:16:20.002Z,8.90
2023-07-26T13:17:22.302Z,8.40
2023-07-26T13:18:24.474Z,10.30
2023-07-26T13:19:26.581Z,9.50
2023-07-26T13:20:29.501Z,9.70
2023-07-26T13:23:01.158Z,8.80
2023-07-26T13:24:03.698Z,10.20
2023-07-26T13:25:06.770Z,8.20
2023-07-26T13:26:09.552Z,10.90
2023-07-26T13:27:11.671Z,10.10
2023-07-26T13:28:13.817Z,7.90
2023-07-26T13:29:16.204Z,8.00
2023-07-26T13:30:18.873Z,7.60
2023-07-26T13:31:21.031Z,6.80
2023-07-26T13:32:23.239Z,7.30
2023-07-26T13:33:26.957Z,7.50
2023-07-26T13:34:29.265Z,7.00
2023-07-26T13:35:31.597Z,7.90
2023-07-26T13:36:34.210Z,8.70
2023-07-26T13:37:36.642Z,6.70
2023-07-26T13:38:38.713Z,9.00
2023-07-26T13:39:40.791Z,9.00
2023-07-26T13:40:43.649Z,8.00
2023-07-26T13:41:45.774Z,9.70
2023-07-26T13:42:48.114Z,9.20
2023-07-26T13:43:50.214Z,8.50
2023-07-26T13:44:52.509Z,8.10
2023-07-26T13:45:54.578Z,7.80
2023-07-26T13:46:57.031Z,8.70
2023-07-26T13:47:59.154Z,8.10
2023-07-26T13:49:01.313Z,9.10
2023-07-26T13:50:04.161Z,8.70
2023-07-26T13:51:08.290Z,7.09
2023-07-26T13:52:10.477Z,8.00
2023-07-26T13:53:12.677Z,7.90
2023-07-26T13:54:15.006Z,7.30
2023-07-26T13:55:17.159Z,8.30
2023-07-26T13:56:19.367Z,8.40
2023-07-26T13:57:21.477Z,9.60
2023-07-26T13:58:23.549Z,10.60
2023-07-26T13:59:25.686Z,7.90
2023-07-26T14:00:27.957Z,8.60
2023-07-26T14:01:31.527Z,7.60
2023-07-26T14:02:34.086Z,8.10
2023-07-26T14:03:36.409Z,7.60
2023-07-26T14:04:39.873Z,7.10
2023-07-26T14:05:42.027Z,7.10
2023-07-26T14:06:44.437Z,7.20